Time;durP1;ratioP1;P1;durP2;ratioP2;P2;SDS_P1;SDS_P2;PMS_P1;PMS_P2;Temp;Humidity;BMP_temperature;BMP_pressure;BME280_temperature;BME280_humidity;BME280_pressure;Samples;Min_cycle;Max_cycle;Signal;HPM_P1;HPM_P2
2023/09/16 00:01:43;;;;;;;8.30;4.35;;;17.50;99.90;;;;;;5084884;28;20028;-79
2023/09/16 00:04:14;;;;;;;6.50;4.10;;;17.50;99.90;;;;;;5064737;28;20040;-77
2023/09/16 00:06:39;;;;;;;6.15;4.00;;;17.50;99.90;;;;;;5091843;28;20250;-76
2023/09/16 00:09:05;;;;;;;7.72;4.10;;;17.50;99.90;;;;;;5067056;28;20024;-76
2023/09/16 00:11:32;;;;;;;9.93;4.13;;;17.50;99.90;;;;;;5072003;28;20089;-76
2023/09/16 00:13:57;;;;;;;8.48;3.83;;;17.50;99.90;;;;;;5078250;28;20027;-76
2023/09/16 00:16:25;;;;;;;5.20;3.83;;;17.50;99.90;;;;;;5069196;28;20028;-76
2023/09/16 00:18:51;;;;;;;5.97;4.05;;;17.50;99.90;;;;;;5100641;28;20027;-75
2023/09/16 00:21:17;;;;;;;6.80;4.05;;;17.50;99.90;;;;;;5079402;28;20024;-76
2023/09/16 00:23:43;;;;;;;6.65;4.10;;;17.50;99.90;;;;;;5096825;28;20028;-74
2023/09/16 00:26:09;;;;;;;7.03;3.60;;;17.40;99.90;;;;;;5095183;28;20020;-76
2023/09/16 00:28:40;;;;;;;5.85;3.92;;;17.40;99.90;;;;;;5093711;28;20044;-74
2023/09/16 00:31:11;;;;;;;5.78;4.10;;;17.30;99.90;;;;;;5076420;28;20016;-75
2023/09/16 00:33:39;;;;;;;7.68;4.57;;;17.30;99.90;;;;;;5078336;28;20032;-74
2023/09/16 00:36:05;;;;;;;4.65;3.75;;;17.20;99.90;;;;;;5080486;28;20017;-74
2023/09/16 00:38:31;;;;;;;5.07;3.80;;;17.20;99.90;;;;;;5077201;28;20103;-75
2023/09/16 00:40:56;;;;;;;6.63;4.35;;;17.10;99.90;;;;;;5079131;28;20092;-75
2023/09/16 00:43:22;;;;;;;6.30;4.03;;;17.10;99.90;;;;;;5074915;28;20028;-74
2023/09/16 00:45:47;;;;;;;8.23;4.57;;;17.10;99.90;;;;;;5076613;28;20020;-75
2023/09/16 00:48:18;;;;;;;6.93;4.72;;;17.00;99.90;;;;;;5075723;28;20040;-75
2023/09/16 00:50:45;;;;;;;7.15;4.55;;;17.00;99.90;;;;;;5090518;28;20036;-75
2023/09/16 00:53:17;;;;;;;5.22;3.55;;;16.90;99.90;;;;;;5092102;28;20048;-75
2023/09/16 00:55:46;;;;;;;7.03;4.10;;;16.90;99.90;;;;;;5090661;28;20025;-75
2023/09/16 00:58:12;;;;;;;5.25;3.85;;;17.00;99.90;;;;;;5074924;28;20044;-75
2023/09/16 01:00:37;;;;;;;6.20;4.07;;;17.00;99.90;;;;;;5085067;28;20028;-75
2023/09/16 01:03:04;;;;;;;6.30;3.95;;;16.90;99.90;;;;;;5073868;28;20042;-75
2023/09/16 01:05:30;;;;;;;6.80;4.07;;;17.00;99.90;;;;;;5074883;28;20025;-75
2023/09/16 01:07:59;;;;;;;7.60;4.13;;;17.00;99.90;;;;;;5090523;28;20097;-75
2023/09/16 01:10:24;;;;;;;6.57;4.40;;;17.00;99.90;;;;;;5073877;28;20056;-74
2023/09/16 01:12:53;;;;;;;6.18;3.97;;;17.10;99.90;;;;;;5072895;28;20021;-75
2023/09/16 01:15:27;;;;;;;6.63;3.88;;;17.00;99.90;;;;;;5072035;28;20057;-76
2023/09/16 01:18:29;;;;;;;5.43;3.45;;;17.10;99.90;;;;;;5092778;28;20026;-75
2023/09/16 01:20:59;;;;;;;;;;;17.00;99.90;;;;;;5070357;28;20044;-75
2023/09/16 01:23:24;;;;;;;6.80;4.60;;;17.00;99.90;;;;;;5074256;28;19943;-75
2023/09/16 01:25:50;;;;;;;6.40;3.50;;;17.00;99.90;;;;;;5091957;28;20025;-74
2023/09/16 01:28:16;;;;;;;5.93;4.15;;;17.00;99.90;;;;;;5077255;28;20025;-75
2023/09/16 01:30:47;;;;;;;6.70;4.07;;;17.00;99.90;;;;;;5076085;28;20039;-75
2023/09/16 01:33:34;;;;;;;5.47;3.80;;;17.00;99.90;;;;;;5075934;28;20051;-75
2023/09/16 01:36:05;;;;;;;7.25;4.38;;;16.90;99.90;;;;;;5073830;28;20091;-75
2023/09/16 01:38:32;;;;;;;4.93;3.78;;;16.90;99.90;;;;;;5092328;28;20035;-75
2023/09/16 01:41:02;;;;;;;5.22;3.65;;;17.00;99.90;;;;;;5072736;28;20024;-74
2023/09/16 01:43:31;;;;;;;5.22;3.90;;;17.00;99.90;;;;;;5093098;28;20077;-75
2023/09/16 01:45:59;;;;;;;8.82;3.65;;;16.90;99.90;;;;;;5092542;28;20029;-74
2023/09/16 01:48:24;;;;;;;5.40;3.42;;;16.90;99.90;;;;;;5076682;28;20017;-74
2023/09/16 01:50:54;;;;;;;5.13;3.50;;;16.90;99.90;;;;;;5076371;28;20021;-76
2023/09/16 01:53:25;;;;;;;5.97;4.05;;;16.90;99.90;;;;;;5074659;28;20016;-74
2023/09/16 01:55:50;;;;;;;4.95;3.28;;;17.00;99.90;;;;;;5087990;28;20028;-75
2023/09/16 01:58:16;;;;;;;7.13;3.97;;;16.90;99.90;;;;;;5073422;28;20032;-75
2023/09/16 02:00:43;;;;;;;5.75;3.83;;;16.90;99.90;;;;;;5088452;28;20028;-74
2023/09/16 02:03:08;;;;;;;5.47;3.72;;;16.90;99.90;;;;;;5072580;28;20215;-75
2023/09/16 02:05:34;;;;;;;4.60;3.83;;;16.80;99.90;;;;;;5072602;28;20036;-74
2023/09/16 02:08:02;;;;;;;8.13;4.07;;;16.80;99.90;;;;;;5071379;28;20028;-75
2023/09/16 02:10:28;;;;;;;5.30;3.83;;;16.80;99.90;;;;;;5073591;28;20044;-75
2023/09/16 02:12:53;;;;;;;7.20;3.85;;;16.70;99.90;;;;;;5070699;28;20067;-74
2023/09/16 02:15:21;;;;;;;6.60;3.72;;;16.70;99.90;;;;;;5090400;28;20025;-75
2023/09/16 02:17:52;;;;;;;8.32;3.85;;;16.70;99.90;;;;;;5073803;28;20017;-75
2023/09/16 02:20:17;;;;;;;3.83;3.25;;;16.60;99.90;;;;;;5071887;28;20063;-75
2023/09/16 02:22:44;;;;;;;5.88;3.90;;;16.60;99.90;;;;;;5073352;28;20016;-74
2023/09/16 02:25:10;;;;;;;7.65;3.47;;;16.60;99.90;;;;;;5071261;28;20020;-74
2023/09/16 02:27:36;;;;;;;7.50;3.55;;;16.50;99.90;;;;;;5076051;28;20043;-75
2023/09/16 02:30:01;;;;;;;9.02;3.95;;;16.50;99.90;;;;;;5092616;28;20036;-75
2023/09/16 02:32:27;;;;;;;5.43;3.90;;;16.50;99.90;;;;;;5074779;28;20020;-74
2023/09/16 02:34:52;;;;;;;4.57;3.55;;;16.50;99.90;;;;;;5076111;28;20027;-74
2023/09/16 02:37:20;;;;;;;6.78;3.65;;;16.50;99.90;;;;;;5074150;28;20027;-74
2023/09/16 02:39:46;;;;;;;6.88;4.55;;;16.50;99.90;;;;;;5076060;28;20056;-74
2023/09/16 02:42:11;;;;;;;6.70;4.07;;;16.40;99.90;;;;;;5091344;28;20036;-75
2023/09/16 02:44:37;;;;;;;6.82;3.60;;;16.40;99.90;;;;;;5090490;28;20039;-75
2023/09/16 02:47:02;;;;;;;8.70;3.60;;;16.40;99.90;;;;;;5076061;28;20029;-75
2023/09/16 02:49:32;;;;;;;4.47;3.13;;;16.30;99.90;;;;;;5071992;28;20047;-75
2023/09/16 02:51:58;;;;;;;7.00;3.83;;;16.30;99.90;;;;;;5092603;28;20013;-75
2023/09/16 02:54:24;;;;;;;9.90;3.40;;;16.40;99.90;;;;;;5074899;28;20025;-74
2023/09/16 02:56:49;;;;;;;5.45;3.60;;;16.40;99.90;;;;;;5075302;28;20020;-75
2023/09/16 02:59:17;;;;;;;4.80;3.92;;;16.30;99.90;;;;;;5076298;28;20029;-75
2023/09/16 03:01:45;;;;;;;5.53;3.53;;;16.40;99.90;;;;;;5075927;28;20036;-75
2023/09/16 03:04:13;;;;;;;4.32;3.08;;;16.40;99.90;;;;;;5075881;28;20024;-75
2023/09/16 03:06:38;;;;;;;8.25;3.97;;;16.30;99.90;;;;;;5072460;28;20033;-75
2023/09/16 03:09:04;;;;;;;5.60;4.05;;;16.30;99.90;;;;;;5072994;28;20051;-75
2023/09/16 03:11:30;;;;;;;5.28;3.55;;;16.30;99.90;;;;;;5095038;28;20036;-75
2023/09/16 03:13:57;;;;;;;4.43;3.28;;;16.30;99.90;;;;;;5073731;28;20428;-75
2023/09/16 03:16:25;;;;;;;5.72;3.75;;;16.30;99.90;;;;;;5072073;28;20032;-75
2023/09/16 03:18:54;;;;;;;5.78;3.90;;;16.30;99.90;;;;;;5076645;28;20020;-74
2023/09/16 03:21:23;;;;;;;6.22;3.75;;;16.30;99.90;;;;;;5093088;28;20021;-75
2023/09/16 03:23:51;;;;;;;4.78;4.03;;;16.30;99.90;;;;;;5076842;28;20045;-75
2023/09/16 03:26:21;;;;;;;11.75;4.13;;;16.30;99.90;;;;;;5090964;28;20045;-75
2023/09/16 03:28:47;;;;;;;8.18;3.88;;;16.30;99.90;;;;;;5075820;28;20253;-75
2023/09/16 03:31:14;;;;;;;5.30;3.92;;;16.20;99.90;;;;;;5072487;28;20092;-75
2023/09/16 03:33:40;;;;;;;6.68;3.67;;;16.20;99.90;;;;;;5091600;28;20052;-74
2023/09/16 03:36:06;;;;;;;4.05;3.33;;;16.20;99.90;;;;;;5074077;28;20033;-75
2023/09/16 03:38:33;;;;;;;8.10;4.05;;;16.20;99.90;;;;;;5093057;28;20089;-75
2023/09/16 03:40:59;;;;;;;4.93;3.60;;;16.20;99.90;;;;;;5073536;28;20043;-74
2023/09/16 03:43:28;;;;;;;5.03;3.65;;;16.20;99.90;;;;;;5075633;28;20021;-75
2023/09/16 03:45:56;;;;;;;5.88;3.97;;;16.20;99.90;;;;;;5092029;28;20212;-75
2023/09/16 03:48:22;;;;;;;6.50;3.95;;;16.10;99.90;;;;;;5090119;28;20583;-75
2023/09/16 03:50:48;;;;;;;6.15;3.28;;;16.10;99.90;;;;;;5091076;28;20036;-75
2023/09/16 03:53:13;;;;;;;4.05;3.25;;;16.10;99.90;;;;;;5073582;28;20021;-75
2023/09/16 03:55:39;;;;;;;5.60;3.67;;;16.10;99.90;;;;;;5093658;28;20025;-75
2023/09/16 03:58:05;;;;;;;5.57;3.85;;;16.10;99.90;;;;;;5073989;28;20017;-75
2023/09/16 04:00:30;;;;;;;4.95;3.63;;;16.10;99.90;;;;;;5089721;28;20033;-75
2023/09/16 04:02:56;;;;;;;5.75;4.10;;;16.10;99.90;;;;;;5087825;28;20009;-74
2023/09/16 04:05:21;;;;;;;7.32;3.58;;;16.10;99.90;;;;;;5089557;28;20013;-75
2023/09/16 04:07:52;;;;;;;5.63;3.88;;;16.00;99.90;;;;;;5091842;28;20028;-74
2023/09/16 04:10:19;;;;;;;6.40;3.67;;;16.00;99.90;;;;;;5090040;28;20096;-74
2023/09/16 04:12:45;;;;;;;4.90;3.80;;;16.00;99.90;;;;;;5073534;28;20024;-74
2023/09/16 04:15:11;;;;;;;7.63;3.83;;;16.00;99.90;;;;;;5090009;28;20032;-74
2023/09/16 04:17:36;;;;;;;4.68;3.25;;;16.00;99.90;;;;;;5073617;28;20025;-75
2023/09/16 04:20:05;;;;;;;4.28;3.53;;;15.90;99.90;;;;;;5073301;28;20021;-74
2023/09/16 04:22:34;;;;;;;7.82;3.85;;;15.90;99.90;;;;;;5071416;28;20047;-74
2023/09/16 04:25:02;;;;;;;5.78;4.07;;;15.90;99.90;;;;;;5087860;28;20192;-74
2023/09/16 04:27:27;;;;;;;6.75;3.65;;;15.90;99.90;;;;;;5092348;28;20025;-75
2023/09/16 04:29:53;;;;;;;7.60;4.28;;;15.80;99.90;;;;;;5070823;28;20039;-74
2023/09/16 04:32:18;;;;;;;5.03;3.97;;;15.80;99.90;;;;;;5072874;28;20037;-74
2023/09/16 04:34:49;;;;;;;7.88;3.95;;;15.90;99.90;;;;;;5088113;28;20036;-75
2023/09/16 04:37:15;;;;;;;9.10;4.07;;;15.90;99.90;;;;;;5087427;28;20051;-74
2023/09/16 04:39:43;;;;;;;4.25;3.38;;;15.90;99.90;;;;;;5077871;28;20040;-75
2023/09/16 04:42:11;;;;;;;5.00;3.28;;;15.80;99.90;;;;;;5070616;28;20024;-74
2023/09/16 04:44:42;;;;;;;4.18;3.42;;;15.90;99.90;;;;;;5089773;28;20044;-75
2023/09/16 04:47:07;;;;;;;4.40;3.28;;;15.80;99.90;;;;;;5075028;28;20096;-74
2023/09/16 04:49:33;;;;;;;5.30;4.13;;;15.80;99.90;;;;;;5073987;28;20058;-74
2023/09/16 04:51:58;;;;;;;5.32;3.70;;;15.80;99.90;;;;;;5090010;28;20028;-74
2023/09/16 04:54:24;;;;;;;5.68;3.42;;;15.90;99.90;;;;;;5071132;28;21052;-74
2023/09/16 04:56:50;;;;;;;9.43;3.97;;;15.80;99.90;;;;;;5071001;28;20024;-75
2023/09/16 04:59:15;;;;;;;6.47;4.30;;;15.80;99.90;;;;;;5071359;28;20040;-75
2023/09/16 05:01:41;;;;;;;5.97;3.72;;;15.80;99.90;;;;;;5073926;28;20214;-74
2023/09/16 05:04:06;;;;;;;7.60;3.58;;;15.80;99.90;;;;;;5090086;28;20035;-75
2023/09/16 05:06:32;;;;;;;4.90;3.83;;;15.80;99.90;;;;;;5072705;28;20012;-74
2023/09/16 05:08:59;;;;;;;6.35;3.97;;;15.80;99.90;;;;;;5071984;28;20037;-74
2023/09/16 05:11:24;;;;;;;5.38;4.38;;;15.80;99.90;;;;;;5088385;28;20087;-74
2023/09/16 05:13:52;;;;;;;8.10;4.10;;;15.80;99.90;;;;;;5068177;28;20021;-75
2023/09/16 05:16:20;;;;;;;5.53;4.03;;;15.70;99.90;;;;;;5068292;28;20036;-75
2023/09/16 05:18:46;;;;;;;6.68;3.63;;;15.80;99.90;;;;;;5069868;28;20058;-74
2023/09/16 05:21:16;;;;;;;4.88;3.33;;;15.80;99.90;;;;;;5072881;28;20029;-75
2023/09/16 05:23:44;;;;;;;5.30;3.42;;;15.80;99.90;;;;;;5085996;28;20032;-74
2023/09/16 05:26:12;;;;;;;6.47;3.70;;;15.80;99.90;;;;;;5074173;28;20017;-74
2023/09/16 05:28:38;;;;;;;6.35;4.13;;;15.80;99.90;;;;;;5069972;28;20024;-74
2023/09/16 05:31:06;;;;;;;5.78;4.05;;;15.80;99.90;;;;;;5072489;28;20016;-74
2023/09/16 05:33:34;;;;;;;5.40;3.78;;;15.80;99.90;;;;;;5088354;28;20076;-75
2023/09/16 05:36:02;;;;;;;6.82;4.13;;;15.70;99.90;;;;;;5071346;28;20024;-75
2023/09/16 05:38:27;;;;;;;5.90;4.00;;;15.80;99.90;;;;;;5088779;28;20032;-74
2023/09/16 05:40:59;;;;;;;4.97;3.92;;;15.80;99.90;;;;;;5085937;28;20020;-74
2023/09/16 05:43:27;;;;;;;6.88;3.72;;;15.80;99.90;;;;;;5069999;28;20032;-74
2023/09/16 05:45:53;;;;;;;7.00;3.83;;;15.80;99.90;;;;;;5089354;28;20033;-74
2023/09/16 05:48:25;;;;;;;6.32;4.00;;;15.80;99.90;;;;;;5070672;28;20029;-74
2023/09/16 05:50:56;;;;;;;6.68;4.40;;;15.80;99.90;;;;;;5070928;28;20078;-74
2023/09/16 05:53:22;;;;;;;5.55;4.07;;;15.80;99.90;;;;;;5070310;28;20045;-75
2023/09/16 05:55:53;;;;;;;5.35;3.78;;;15.80;99.90;;;;;;5070833;28;20024;-75
2023/09/16 05:58:19;;;;;;;5.97;4.00;;;15.80;99.90;;;;;;5071724;28;20024;-74
2023/09/16 06:00:58;;;;;;;7.18;4.57;;;15.80;99.90;;;;;;5071718;28;20043;-74
2023/09/16 06:03:26;;;;;;;7.63;4.35;;;15.90;99.90;;;;;;5074471;28;20021;-75
2023/09/16 06:06:01;;;;;;;7.15;3.70;;;15.90;99.90;;;;;;5071420;28;20048;-74
2023/09/16 06:08:30;;;;;;;5.47;4.07;;;16.00;99.90;;;;;;5070944;28;20017;-74
2023/09/16 06:10:56;;;;;;;10.98;4.07;;;16.00;99.90;;;;;;5089218;28;20031;-74
2023/09/16 06:13:24;;;;;;;8.52;4.50;;;16.00;99.90;;;;;;5073202;28;20020;-75
2023/09/16 06:15:52;;;;;;;8.52;3.95;;;16.10;99.90;;;;;;5070475;28;20008;-75
2023/09/16 06:18:18;;;;;;;7.15;3.88;;;16.10;99.90;;;;;;5070761;28;20013;-74
2023/09/16 06:20:44;;;;;;;7.78;3.80;;;16.20;99.90;;;;;;5074735;28;20016;-75
2023/09/16 06:23:09;;;;;;;5.13;3.22;;;16.30;99.90;;;;;;5070481;28;20032;-75
2023/09/16 06:25:35;;;;;;;3.40;3.03;;;16.30;99.90;;;;;;5073396;28;20016;-75
2023/09/16 06:28:04;;;;;;;5.35;4.20;;;16.40;99.90;;;;;;5073124;28;20032;-75
2023/09/16 06:30:33;;;;;;;3.70;3.17;;;16.40;99.90;;;;;;5071788;28;20039;-75
2023/09/16 06:32:59;;;;;;;6.43;4.53;;;16.50;99.90;;;;;;5090720;28;20024;-74
2023/09/16 06:35:25;;;;;;;6.10;3.53;;;16.50;99.90;;;;;;5091841;28;20142;-74
2023/09/16 06:37:50;;;;;;;5.30;3.90;;;16.60;99.90;;;;;;5075152;28;20029;-74
2023/09/16 06:40:17;;;;;;;5.80;4.40;;;16.60;99.90;;;;;;5073468;28;20013;-76
2023/09/16 06:42:45;;;;;;;4.53;2.85;;;16.60;99.90;;;;;;5076633;28;20027;-78
2023/09/16 06:45:14;;;;;;;6.88;3.85;;;16.70;99.90;;;;;;5074526;28;20024;-76
2023/09/16 06:47:39;;;;;;;4.85;3.88;;;16.70;99.90;;;;;;5074597;28;20008;-77
2023/09/16 06:50:08;;;;;;;5.82;3.80;;;16.80;99.90;;;;;;5074670;28;20039;-77
2023/09/16 06:52:34;;;;;;;5.03;3.30;;;16.90;99.90;;;;;;5075107;28;20017;-77
2023/09/16 06:54:59;;;;;;;5.78;3.40;;;16.90;99.90;;;;;;5077429;28;20059;-77
2023/09/16 06:57:26;;;;;;;5.47;3.70;;;17.00;99.90;;;;;;5074877;28;20017;-76
2023/09/16 06:59:51;;;;;;;4.82;3.30;;;16.90;99.90;;;;;;5091345;28;20016;-75
2023/09/16 07:02:18;;;;;;;5.28;3.17;;;17.10;99.90;;;;;;5072522;28;20024;-75
2023/09/16 07:04:45;;;;;;;4.53;3.35;;;17.10;99.90;;;;;;5074091;28;20040;-75
2023/09/16 07:07:12;;;;;;;5.57;2.70;;;17.20;99.90;;;;;;5072771;28;20027;-75
2023/09/16 07:09:38;;;;;;;6.38;3.22;;;17.10;99.90;;;;;;5073725;28;20040;-76
2023/09/16 07:12:06;;;;;;;3.75;3.03;;;17.30;99.90;;;;;;5090465;28;20017;-75
2023/09/16 07:14:31;;;;;;;7.22;2.78;;;17.30;99.90;;;;;;5075032;28;20043;-76
2023/09/16 07:16:57;;;;;;;4.72;3.38;;;17.40;99.90;;;;;;5074339;28;20167;-80
2023/09/16 07:19:23;;;;;;;4.95;3.40;;;17.40;99.90;;;;;;5068260;28;20059;-78
2023/09/16 07:21:48;;;;;;;3.85;3.38;;;17.50;99.90;;;;;;5064170;28;20118;-77
2023/09/16 07:24:17;;;;;;;6.13;2.95;;;17.50;99.90;;;;;;5059849;28;20462;-76
2023/09/16 07:26:44;;;;;;;6.07;3.47;;;17.50;99.90;;;;;;5065188;28;20073;-77
2023/09/16 07:29:10;;;;;;;6.40;3.47;;;17.50;99.90;;;;;;5059494;28;20029;-82
2023/09/16 07:31:35;;;;;;;6.18;2.83;;;17.60;99.90;;;;;;5059759;28;20028;-79
2023/09/16 07:34:01;;;;;;;5.82;3.35;;;17.60;99.90;;;;;;5055528;28;20028;-81
2023/09/16 07:36:27;;;;;;;3.55;2.80;;;17.60;99.90;;;;;;5052570;28;20028;-81
2023/09/16 07:38:55;;;;;;;6.20;3.35;;;17.70;99.90;;;;;;5071629;28;20074;-84
2023/09/16 07:41:25;;;;;;;3.63;2.58;;;17.70;99.90;;;;;;5067981;28;20028;-82
2023/09/16 07:43:52;;;;;;;4.55;2.90;;;17.70;99.90;;;;;;5055164;28;20128;-78
2023/09/16 07:46:20;;;;;;;4.80;2.85;;;17.80;99.90;;;;;;5064233;28;20032;-78
2023/09/16 07:48:45;;;;;;;3.58;2.85;;;17.80;99.90;;;;;;5053349;28;20437;-80
2023/09/16 07:51:11;;;;;;;4.57;2.33;;;17.90;99.90;;;;;;5050374;28;20031;-79
2023/09/16 07:53:36;;;;;;;3.78;2.92;;;17.90;99.90;;;;;;5068384;28;20025;-79
2023/09/16 07:56:02;;;;;;;3.60;2.67;;;18.00;99.90;;;;;;5070557;28;20025;-81
2023/09/16 07:58:28;;;;;;;4.38;3.30;;;18.00;99.90;;;;;;5053326;28;20547;-81
2023/09/16 08:00:53;;;;;;;7.70;2.83;;;18.00;99.90;;;;;;5053475;28;20035;-83
2023/09/16 08:03:22;;;;;;;6.70;2.70;;;18.00;99.90;;;;;;5067333;28;20093;-80
2023/09/16 08:05:50;;;;;;;5.25;3.20;;;18.10;99.90;;;;;;5050686;28;20564;-82
2023/09/16 08:08:16;;;;;;;5.13;3.28;;;18.10;99.90;;;;;;5067429;28;20032;-80
2023/09/16 08:10:47;;;;;;;4.03;2.95;;;18.10;99.90;;;;;;5067547;28;20032;-81
2023/09/16 08:13:17;;;;;;;6.07;3.15;;;18.20;99.90;;;;;;5049000;28;20360;-82
2023/09/16 08:15:45;;;;;;;4.78;2.95;;;18.20;99.90;;;;;;5065558;28;20068;-82
2023/09/16 08:18:10;;;;;;;3.97;2.95;;;18.30;99.90;;;;;;5052670;28;20025;-80
2023/09/16 08:20:36;;;;;;;4.60;3.13;;;18.40;99.90;;;;;;5066062;28;20032;-82
2023/09/16 08:23:08;;;;;;;3.65;2.72;;;18.50;99.90;;;;;;5049708;28;20527;-79
2023/09/16 08:25:33;;;;;;;5.32;2.80;;;18.60;99.90;;;;;;5067968;28;20032;-81
2023/09/16 08:28:01;;;;;;;7.78;3.10;;;18.60;99.90;;;;;;5048171;28;20033;-82
2023/09/16 08:30:27;;;;;;;3.95;2.78;;;18.70;99.90;;;;;;5050777;28;20593;-83
2023/09/16 08:32:52;;;;;;;4.38;3.42;;;18.70;99.90;;;;;;5065113;28;20025;-82
2023/09/16 08:35:24;;;;;;;4.70;3.30;;;18.70;99.90;;;;;;5048028;28;20028;-82
2023/09/16 08:37:50;;;;;;;8.63;3.13;;;18.70;99.90;;;;;;5050611;28;20020;-81
2023/09/16 08:40:21;;;;;;;6.22;3.40;;;18.70;99.90;;;;;;5059803;28;20051;-83
2023/09/16 08:43:21;;;;;;;4.05;2.95;;;18.70;99.90;;;;;;5053415;28;20129;-83
2023/09/16 08:45:58;;;;;;;3.70;3.00;;;18.80;99.90;;;;;;5051743;28;20048;-81
2023/09/16 08:48:25;;;;;;;5.22;3.78;;;18.80;99.90;;;;;;5051180;28;20128;-80
2023/09/16 08:50:57;;;;;;;11.70;3.05;;;18.90;99.90;;;;;;5050848;28;20499;-81
2023/09/16 08:53:27;;;;;;;4.30;3.15;;;19.00;99.90;;;;;;5063795;28;20075;-81
2023/09/16 08:55:55;;;;;;;5.38;3.35;;;19.10;99.90;;;;;;5066543;28;20020;-82
2023/09/16 08:58:21;;;;;;;4.03;3.28;;;19.10;99.90;;;;;;5066112;28;20107;-80
2023/09/16 09:00:47;;;;;;;3.67;3.05;;;19.10;99.90;;;;;;5065819;28;20032;-83
2023/09/16 09:03:13;;;;;;;7.60;3.95;;;19.10;99.90;;;;;;5049983;28;20043;-82
2023/09/16 09:05:42;;;;;;;4.22;3.00;;;19.10;99.90;;;;;;5049286;28;20037;-83
2023/09/16 09:08:10;;;;;;;6.55;3.60;;;19.20;99.90;;;;;;5049324;28;20028;-84
2023/09/16 09:10:42;;;;;;;4.78;3.13;;;19.30;99.90;;;;;;5044424;28;20484;-82
2023/09/16 09:13:12;;;;;;;4.32;2.80;;;19.30;99.90;;;;;;5049571;28;20115;-83
2023/09/16 09:15:45;;;;;;;4.03;3.28;;;19.30;99.90;;;;;;5048127;28;20124;-82
2023/09/16 09:18:12;;;;;;;3.97;3.17;;;19.40;99.90;;;;;;5068049;28;20043;-80
2023/09/16 09:20:43;;;;;;;4.15;2.70;;;19.40;99.90;;;;;;5048825;28;20033;-84
2023/09/16 09:23:09;;;;;;;4.00;2.80;;;19.40;99.90;;;;;;5050409;28;20024;-82
2023/09/16 09:25:36;;;;;;;5.05;3.35;;;19.40;99.90;;;;;;5048976;28;20027;-82
2023/09/16 09:28:04;;;;;;;5.10;3.10;;;19.40;99.90;;;;;;5045887;28;20033;-81
2023/09/16 09:30:32;;;;;;;7.43;3.42;;;19.40;99.90;;;;;;5066486;28;20032;-83
2023/09/16 09:32:59;;;;;;;8.77;3.65;;;19.40;99.90;;;;;;5065706;28;20074;-82
2023/09/16 09:35:29;;;;;;;4.57;3.70;;;19.40;99.90;;;;;;5066812;28;20029;-83
2023/09/16 09:37:56;;;;;;;6.68;3.38;;;19.50;99.90;;;;;;5065559;28;20612;-82
2023/09/16 09:40:22;;;;;;;3.65;3.20;;;19.60;99.90;;;;;;5047145;28;20766;-82
2023/09/16 09:42:50;;;;;;;4.95;3.42;;;19.60;99.90;;;;;;5071084;28;20107;-83
2023/09/16 09:45:18;;;;;;;5.13;3.50;;;19.60;99.90;;;;;;5048025;28;20035;-81
2023/09/16 09:47:45;;;;;;;6.65;3.50;;;19.60;99.90;;;;;;5064817;28;20055;-82
2023/09/16 09:50:30;;;;;;;5.45;3.58;;;19.70;99.90;;;;;;5065557;28;20043;-81
2023/09/16 09:52:56;;;;;;;6.35;3.58;;;19.70;99.90;;;;;;5049798;28;20035;-82
2023/09/16 09:55:23;;;;;;;6.70;3.75;;;19.70;99.90;;;;;;5066395;28;20021;-82
2023/09/16 09:57:54;;;;;;;4.97;3.20;;;19.80;99.90;;;;;;5065872;28;21524;-83
2023/09/16 10:00:23;;;;;;;9.73;3.90;;;19.80;99.90;;;;;;5045915;28;20107;-82
2023/09/16 10:02:50;;;;;;;5.18;3.80;;;19.90;99.90;;;;;;5063803;28;20119;-83
2023/09/16 10:05:17;;;;;;;16.13;4.00;;;20.00;99.90;;;;;;5049910;28;20024;-81
2023/09/16 10:07:44;;;;;;;9.80;3.83;;;20.00;99.90;;;;;;5067035;28;20025;-83
2023/09/16 10:10:13;;;;;;;7.00;4.05;;;20.10;99.90;;;;;;5061774;28;20024;-81
2023/09/16 10:12:42;;;;;;;6.07;3.38;;;20.10;99.90;;;;;;5058143;28;20411;-82
2023/09/16 10:15:08;;;;;;;6.15;3.50;;;20.20;99.90;;;;;;5045678;28;20705;-83
2023/09/16 10:17:34;;;;;;;5.75;3.65;;;20.10;99.90;;;;;;5051853;28;20060;-82
2023/09/16 10:20:04;;;;;;;7.72;3.40;;;20.10;99.90;;;;;;5069406;28;20040;-83
2023/09/16 10:22:30;;;;;;;5.03;3.63;;;20.10;99.90;;;;;;5047210;28;20531;-82
2023/09/16 10:24:56;;;;;;;7.43;4.28;;;20.20;99.90;;;;;;5064405;28;20116;-83
2023/09/16 10:27:31;;;;;;;5.15;3.80;;;20.30;99.90;;;;;;5048538;28;20362;-82
2023/09/16 10:29:59;;;;;;;7.55;3.92;;;20.40;99.90;;;;;;5064181;28;20082;-83
2023/09/16 10:32:30;;;;;;;4.45;3.88;;;20.40;99.90;;;;;;5063339;28;20029;-80
2023/09/16 10:34:59;;;;;;;10.88;3.85;;;20.40;99.90;;;;;;5064026;28;20381;-80
2023/09/16 10:37:25;;;;;;;7.15;3.80;;;20.40;99.90;;;;;;5066834;28;20055;-82
2023/09/16 10:39:54;;;;;;;7.90;5.38;;;20.40;99.90;;;;;;5047877;28;20145;-83
2023/09/16 10:42:22;;;;;;;7.03;3.70;;;20.50;99.90;;;;;;5065425;28;20112;-83
2023/09/16 10:44:48;;;;;;;4.45;3.50;;;20.60;99.90;;;;;;5066997;28;20151;-81
2023/09/16 10:47:17;;;;;;;4.70;3.65;;;20.70;99.90;;;;;;5049484;28;20199;-80
2023/09/16 10:49:49;;;;;;;7.15;4.25;;;20.80;99.90;;;;;;5071379;28;20503;-81
2023/09/16 10:52:20;;;;;;;5.50;3.65;;;20.80;99.90;;;;;;5070864;28;20357;-81
2023/09/16 10:54:57;;;;;;;7.57;3.78;;;21.00;99.90;;;;;;5066525;28;20107;-83
2023/09/16 10:57:30;;;;;;;5.68;3.67;;;21.00;99.90;;;;;;5067721;28;20029;-80
2023/09/16 10:59:57;;;;;;;5.50;3.97;;;21.00;99.90;;;;;;5066023;28;20032;-80
2023/09/16 11:02:31;;;;;;;6.32;4.22;;;21.10;99.90;;;;;;5069083;28;20101;-81
2023/09/16 11:04:57;;;;;;;4.80;3.95;;;21.20;99.90;;;;;;5068043;28;20074;-80
2023/09/16 11:07:24;;;;;;;8.98;4.05;;;21.20;99.90;;;;;;5069980;28;20034;-80
2023/09/16 11:09:51;;;;;;;3.92;3.50;;;21.30;99.90;;;;;;5052059;28;20063;-80
2023/09/16 11:12:18;;;;;;;4.57;3.70;;;21.30;99.90;;;;;;5047565;28;20051;-82
2023/09/16 11:14:44;;;;;;;4.85;3.80;;;21.50;99.90;;;;;;5048002;28;20029;-81
2023/09/16 11:17:13;;;;;;;7.80;3.55;;;21.60;99.90;;;;;;5070122;28;20044;-83
2023/09/16 11:19:39;;;;;;;6.88;4.32;;;21.60;99.90;;;;;;5051580;28;20029;-81
2023/09/16 11:22:04;;;;;;;8.32;4.38;;;21.60;99.90;;;;;;5052770;28;20046;-81
2023/09/16 11:24:36;;;;;;;6.50;3.50;;;21.70;99.90;;;;;;5047343;28;20029;-81
2023/09/16 11:27:09;;;;;;;5.53;4.20;;;21.90;99.90;;;;;;5063107;28;20817;-82
2023/09/16 11:29:37;;;;;;;4.22;3.47;;;21.90;99.90;;;;;;5066664;28;20041;-81
2023/09/16 11:32:03;;;;;;;4.25;3.75;;;22.00;99.90;;;;;;5051737;28;20039;-81
2023/09/16 11:34:29;;;;;;;5.13;4.28;;;22.10;99.90;;;;;;5048347;28;20025;-82
2023/09/16 11:36:58;;;;;;;4.28;3.47;;;22.30;99.90;;;;;;5048982;28;20032;-80
2023/09/16 11:39:39;;;;;;;6.70;4.05;;;22.40;99.90;;;;;;5051668;28;20036;-80
2023/09/16 11:42:05;;;;;;;4.20;3.47;;;22.60;99.90;;;;;;5050011;28;20091;-82
2023/09/16 11:44:31;;;;;;;5.10;3.58;;;22.60;99.90;;;;;;5051293;28;20036;-81
2023/09/16 11:46:58;;;;;;;6.88;4.05;;;22.60;99.90;;;;;;5066448;28;20028;-82
2023/09/16 11:49:24;;;;;;;4.63;3.83;;;22.70;99.90;;;;;;5048241;28;20498;-81
2023/09/16 11:51:55;;;;;;;6.20;3.65;;;22.80;99.90;;;;;;5065936;28;20908;-80
2023/09/16 11:54:21;;;;;;;10.20;4.03;;;23.00;99.90;;;;;;5048405;28;20028;-81
2023/09/16 11:56:49;;;;;;;9.30;4.20;;;23.10;99.90;;;;;;5064602;28;20031;-81
2023/09/16 11:59:15;;;;;;;3.53;3.10;;;23.10;99.90;;;;;;5048161;28;20029;-82
2023/09/16 12:01:41;;;;;;;6.47;4.00;;;23.30;99.90;;;;;;5065732;28;20036;-81
2023/09/16 12:04:09;;;;;;;4.18;3.60;;;23.40;99.90;;;;;;5048575;28;20025;-81
2023/09/16 12:06:35;;;;;;;7.88;3.75;;;23.50;99.90;;;;;;5048902;28;20033;-80
2023/09/16 12:09:03;;;;;;;7.65;3.72;;;23.50;99.90;;;;;;5066003;28;20035;-80
2023/09/16 12:11:31;;;;;;;4.95;3.45;;;23.50;99.90;;;;;;5049412;28;20033;-81
2023/09/16 12:13:58;;;;;;;4.68;3.63;;;23.60;99.90;;;;;;5065272;28;20021;-80
2023/09/16 12:16:27;;;;;;;4.18;3.45;;;23.70;99.90;;;;;;5048605;28;20020;-81
2023/09/16 12:18:53;;;;;;;4.90;3.95;;;23.90;99.90;;;;;;5048625;28;20036;-81
2023/09/16 12:21:19;;;;;;;5.03;3.70;;;24.00;99.90;;;;;;5050753;28;20039;-81
2023/09/16 12:23:51;;;;;;;5.93;3.42;;;24.10;99.90;;;;;;5049041;28;20361;-80
2023/09/16 12:26:19;;;;;;;7.45;3.40;;;24.10;99.90;;;;;;5050434;28;20631;-81
2023/09/16 12:28:47;;;;;;;4.57;3.70;;;24.20;99.90;;;;;;5049522;28;20925;-79
2023/09/16 12:31:19;;;;;;;6.72;3.45;;;24.30;99.90;;;;;;5047753;28;20185;-81
2023/09/16 12:33:53;;;;;;;;;;;24.30;99.90;;;;;;5049112;28;20473;-81
2023/09/16 12:36:21;;;;;;;5.32;3.85;;;24.40;99.90;;;;;;5066039;28;20308;-81
2023/09/16 12:38:47;;;;;;;4.63;3.40;;;24.40;99.90;;;;;;5044799;28;20036;-81
2023/09/16 12:41:14;;;;;;;4.70;3.50;;;24.50;99.90;;;;;;5067702;28;20099;-80
2023/09/16 12:43:40;;;;;;;5.00;2.85;;;24.60;99.90;;;;;;5047191;28;20044;-80
2023/09/16 12:46:08;;;;;;;6.55;3.22;;;24.70;99.90;;;;;;5047768;28;20028;-81
2023/09/16 12:48:37;;;;;;;4.28;3.38;;;24.70;99.90;;;;;;5065403;28;20449;-80
2023/09/16 12:51:03;;;;;;;4.35;3.45;;;24.70;99.90;;;;;;5066912;28;20458;-79